Time;durP1;ratioP1;P1;durP2;ratioP2;P2;SDS_P1;SDS_P2;PMS_P1;PMS_P2;Temp;Humidity;BMP_temperature;BMP_pressure;BME280_temperature;BME280_humidity;BME280_pressure;Samples;Min_cycle;Max_cycle;Signal;HPM_P1;HPM_P2
2021/05/04 00:01:11;;;;;;;8.73;4.90;;;6.80;99.90;;;;;;4951405;29;20749;-56
2021/05/04 00:03:36;;;;;;;8.20;4.70;;;6.80;99.90;;;;;;4950866;29;20397;-52
2021/05/04 00:06:02;;;;;;;8.20;4.87;;;6.80;99.90;;;;;;4951922;29;20766;-52
2021/05/04 00:08:28;;;;;;;9.23;5.00;;;6.80;99.90;;;;;;4951128;29;20432;-52
2021/05/04 00:10:54;;;;;;;7.82;4.70;;;6.80;99.90;;;;;;4951391;29;20507;-52
2021/05/04 00:13:19;;;;;;;7.70;4.93;;;6.80;99.90;;;;;;4950915;29;20386;-53
2021/05/04 00:15:45;;;;;;;8.50;4.70;;;6.80;99.90;;;;;;4951076;29;20466;-52
2021/05/04 00:18:11;;;;;;;9.47;5.13;;;6.90;99.90;;;;;;4951698;29;20433;-56
2021/05/04 00:20:37;;;;;;;10.43;5.77;;;6.80;99.90;;;;;;4951101;29;20473;-52
2021/05/04 00:23:03;;;;;;;10.10;4.93;;;7.00;99.90;;;;;;4951580;29;20394;-52
2021/05/04 00:25:30;;;;;;;8.98;5.15;;;7.00;99.90;;;;;;4950583;29;20401;-53
2021/05/04 00:27:57;;;;;;;7.55;4.60;;;7.10;99.90;;;;;;4951290;29;20426;-53
2021/05/04 00:30:23;;;;;;;8.10;4.95;;;7.10;99.90;;;;;;4950638;28;20433;-52
2021/05/04 00:32:49;;;;;;;9.00;5.57;;;7.10;99.90;;;;;;4954842;29;20866;-53
2021/05/04 00:35:14;;;;;;;8.77;5.30;;;7.00;99.90;;;;;;4954139;29;20406;-55
2021/05/04 00:37:40;;;;;;;8.40;5.15;;;7.10;99.90;;;;;;4954402;29;20750;-53
2021/05/04 00:40:06;;;;;;;9.27;5.20;;;7.00;99.90;;;;;;4954614;29;20390;-53
2021/05/04 00:42:32;;;;;;;8.60;5.30;;;7.00;99.90;;;;;;4936823;29;21010;-52
2021/05/04 00:44:58;;;;;;;8.73;5.00;;;7.10;99.90;;;;;;4954854;29;20485;-52
2021/05/04 00:47:24;;;;;;;8.55;5.10;;;7.10;99.90;;;;;;4953738;29;20473;-55
2021/05/04 00:49:50;;;;;;;9.70;4.95;;;7.00;99.90;;;;;;4954896;29;20385;-52
2021/05/04 00:52:16;;;;;;;8.67;5.30;;;7.00;99.90;;;;;;4953727;29;20390;-56
2021/05/04 00:54:42;;;;;;;9.13;5.55;;;7.20;99.90;;;;;;4937038;29;20421;-54
2021/05/04 00:57:12;;;;;;;9.37;5.53;;;7.10;99.90;;;;;;4954604;29;20386;-52
2021/05/04 00:59:38;;;;;;;8.90;5.45;;;7.20;99.90;;;;;;4953759;29;20530;-53
2021/05/04 01:02:04;;;;;;;8.98;5.40;;;7.10;99.90;;;;;;4954575;29;20425;-53
2021/05/04 01:04:31;;;;;;;9.40;5.90;;;7.10;99.90;;;;;;4953621;29;20490;-53
2021/05/04 01:06:56;;;;;;;10.77;5.65;;;7.10;99.90;;;;;;4954420;29;20398;-52
2021/05/04 01:09:22;;;;;;;11.50;5.90;;;7.00;99.90;;;;;;4953321;29;20456;-53
2021/05/04 01:11:48;;;;;;;9.60;5.60;;;7.00;99.90;;;;;;4954483;29;20390;-52
2021/05/04 01:14:15;;;;;;;9.90;5.40;;;7.00;99.90;;;;;;4954374;29;20944;-56
2021/05/04 01:16:42;;;;;;;11.90;5.75;;;7.00;99.90;;;;;;4953762;29;20501;-53
2021/05/04 01:19:09;;;;;;;8.35;5.38;;;6.90;99.90;;;;;;4954084;29;20398;-52
2021/05/04 01:21:35;;;;;;;8.25;5.40;;;7.00;99.90;;;;;;4953001;29;20393;-52
2021/05/04 01:24:03;;;;;;;11.47;5.80;;;7.10;99.90;;;;;;4954084;29;20393;-53
2021/05/04 01:26:28;;;;;;;8.75;5.60;;;7.10;99.90;;;;;;4953654;29;20519;-52
2021/05/04 01:28:54;;;;;;;9.90;5.57;;;7.10;99.90;;;;;;4953623;29;20430;-52
2021/05/04 01:31:19;;;;;;;10.00;5.70;;;7.20;99.90;;;;;;4953204;29;20757;-52
2021/05/04 01:33:45;;;;;;;10.13;5.40;;;7.30;99.90;;;;;;4953935;29;20540;-52
2021/05/04 01:36:12;;;;;;;9.73;5.20;;;7.40;99.90;;;;;;4935967;29;20421;-63
2021/05/04 01:38:37;;;;;;;9.70;5.35;;;7.40;99.90;;;;;;4952932;29;20398;-54
2021/05/04 01:41:03;;;;;;;7.30;4.78;;;7.50;99.90;;;;;;4953677;29;20545;-52
2021/05/04 01:43:29;;;;;;;8.70;4.70;;;7.50;99.90;;;;;;4952212;28;20900;-52
2021/05/04 01:45:55;;;;;;;9.13;5.10;;;7.70;99.90;;;;;;4953594;29;20394;-55
2021/05/04 01:48:20;;;;;;;8.93;4.60;;;7.70;99.90;;;;;;4952418;29;20386;-53
2021/05/04 01:50:46;;;;;;;8.30;4.73;;;7.70;99.90;;;;;;4953959;29;20437;-53
2021/05/04 01:53:12;;;;;;;8.38;4.60;;;7.90;99.90;;;;;;4953568;29;20386;-53
2021/05/04 01:55:37;;;;;;;8.13;4.70;;;7.90;99.90;;;;;;4952180;29;20916;-54
2021/05/04 01:58:03;;;;;;;7.90;4.27;;;8.00;99.90;;;;;;4953058;29;20417;-53
2021/05/04 02:00:29;;;;;;;6.80;4.30;;;8.10;99.90;;;;;;4952611;29;20401;-53
2021/05/04 02:02:55;;;;;;;8.13;4.17;;;8.10;99.90;;;;;;4953080;29;20429;-53
2021/05/04 02:05:20;;;;;;;8.00;3.90;;;8.10;99.90;;;;;;4952547;29;20400;-53
2021/05/04 02:07:46;;;;;;;8.10;4.00;;;8.20;99.90;;;;;;4953302;29;20382;-53
2021/05/04 02:10:12;;;;;;;7.27;3.70;;;8.10;99.90;;;;;;4952996;29;20727;-53
2021/05/04 02:12:41;;;;;;;7.80;4.47;;;8.20;99.90;;;;;;4952153;29;20388;-53
2021/05/04 02:15:09;;;;;;;7.78;3.92;;;8.20;99.90;;;;;;4953044;29;20413;-53
2021/05/04 02:17:35;;;;;;;8.13;4.50;;;8.20;99.90;;;;;;4952192;29;20406;-53
2021/05/04 02:20:00;;;;;;;8.07;4.20;;;8.20;99.90;;;;;;4953057;29;20393;-53
2021/05/04 02:22:26;;;;;;;7.75;4.22;;;8.30;99.90;;;;;;4952276;29;20382;-53
2021/05/04 02:24:52;;;;;;;7.60;4.10;;;8.40;99.90;;;;;;4952990;29;20393;-53
2021/05/04 02:27:17;;;;;;;8.07;3.90;;;8.30;99.90;;;;;;4951893;29;20418;-57
2021/05/04 02:29:43;;;;;;;7.10;4.07;;;8.30;99.90;;;;;;4952540;29;20739;-53
2021/05/04 02:32:09;;;;;;;7.80;3.95;;;8.30;99.90;;;;;;4952793;29;20750;-53
2021/05/04 02:34:35;;;;;;;5.82;3.30;;;8.40;99.90;;;;;;4951567;29;20394;-53
2021/05/04 02:37:01;;;;;;;7.07;3.80;;;8.50;99.90;;;;;;4953338;29;20742;-53
2021/05/04 02:39:26;;;;;;;6.60;3.80;;;8.60;99.90;;;;;;4951790;29;20397;-53
2021/05/04 02:41:52;;;;;;;7.47;3.92;;;8.70;99.90;;;;;;4952684;29;20386;-53
2021/05/04 02:44:17;;;;;;;6.70;3.90;;;8.70;99.90;;;;;;4935008;29;20394;-56
2021/05/04 02:46:43;;;;;;;6.97;4.10;;;8.70;99.90;;;;;;4952204;29;20398;-53
2021/05/04 02:49:09;;;;;;;7.43;4.10;;;8.70;99.90;;;;;;4935473;29;20390;-53
2021/05/04 02:51:34;;;;;;;7.13;3.95;;;8.80;99.90;;;;;;4951540;29;20437;-53
2021/05/04 02:54:00;;;;;;;6.70;3.80;;;8.60;99.90;;;;;;4952315;28;20389;-54
2021/05/04 02:56:26;;;;;;;6.47;3.80;;;8.60;99.90;;;;;;4934274;29;20426;-53
2021/05/04 02:58:51;;;;;;;7.07;3.80;;;8.80;99.90;;;;;;4934971;29;20414;-54
2021/05/04 03:01:17;;;;;;;8.50;3.80;;;8.70;99.90;;;;;;4951652;29;20909;-56
2021/05/04 03:03:43;;;;;;;7.13;4.20;;;8.80;99.90;;;;;;4951980;29;20390;-53
2021/05/04 03:06:09;;;;;;;7.60;4.10;;;8.80;99.90;;;;;;4952364;29;20484;-52
2021/05/04 03:08:35;;;;;;;7.30;3.50;;;8.80;99.90;;;;;;4951481;29;20481;-53
2021/05/04 03:11:01;;;;;;;7.10;4.20;;;8.90;99.90;;;;;;4952460;29;20390;-53
2021/05/04 03:13:29;;;;;;;6.70;3.40;;;9.00;99.90;;;;;;4951429;29;20806;-52
2021/05/04 03:15:55;;;;;;;7.77;3.90;;;9.00;99.90;;;;;;4951763;29;20445;-52
2021/05/04 03:18:21;;;;;;;8.60;4.30;;;9.00;99.90;;;;;;4951186;29;20448;-53
2021/05/04 03:20:52;;;;;;;8.07;4.07;;;9.00;99.90;;;;;;4951772;29;20912;-53
2021/05/04 03:23:19;;;;;;;6.82;3.80;;;9.00;99.90;;;;;;4951753;29;20465;-56
2021/05/04 03:25:45;;;;;;;6.20;3.58;;;9.00;99.90;;;;;;4951806;29;20398;-53
2021/05/04 03:28:12;;;;;;;6.10;3.20;;;9.00;99.90;;;;;;4952011;29;20410;-52
2021/05/04 03:30:38;;;;;;;6.60;3.30;;;9.10;99.90;;;;;;4953356;28;20403;-52
2021/05/04 03:33:05;;;;;;;6.55;3.38;;;9.10;99.90;;;;;;4967634;28;20423;-53
2021/05/04 03:35:32;;;;;;;6.30;3.40;;;9.30;99.90;;;;;;4970040;28;20419;-53
2021/05/04 03:37:57;;;;;;;7.47;3.53;;;9.30;99.90;;;;;;4971353;28;20543;-53
2021/05/04 03:40:23;;;;;;;6.55;3.50;;;9.20;99.90;;;;;;4970016;28;20922;-52
2021/05/04 03:42:49;;;;;;;6.80;3.53;;;9.20;99.90;;;;;;4970861;28;20884;-52
2021/05/04 03:45:14;;;;;;;6.60;3.20;;;9.30;99.90;;;;;;4970651;28;20454;-52
2021/05/04 03:47:42;;;;;;;6.10;3.47;;;9.30;99.90;;;;;;4970514;28;20392;-52
2021/05/04 03:50:21;;;;;;;6.78;3.33;;;9.30;99.90;;;;;;4971015;28;20420;-53
2021/05/04 03:52:47;;;;;;;7.20;3.40;;;9.30;99.90;;;;;;4970897;28;20856;-52
2021/05/04 03:55:13;;;;;;;6.40;3.40;;;9.30;99.90;;;;;;4970682;28;20498;-52
2021/05/04 03:57:39;;;;;;;6.65;3.70;;;9.40;99.90;;;;;;4969809;28;20440;-53
2021/05/04 04:00:07;;;;;;;5.70;3.27;;;9.40;99.90;;;;;;4971107;28;20507;-52
2021/05/04 04:02:33;;;;;;;8.07;3.40;;;9.40;99.90;;;;;;4969535;28;20392;-53
2021/05/04 04:04:59;;;;;;;6.85;3.67;;;9.30;99.90;;;;;;4961053;28;20403;-52
2021/05/04 04:07:24;;;;;;;7.20;3.00;;;9.40;99.90;;;;;;4971967;28;20478;-52
2021/05/04 04:09:50;;;;;;;8.60;3.83;;;9.40;99.90;;;;;;4974413;28;20872;-53
2021/05/04 04:12:16;;;;;;;7.70;3.20;;;9.40;99.90;;;;;;4974435;28;20398;-52
2021/05/04 04:14:42;;;;;;;6.53;3.30;;;9.40;99.90;;;;;;4974056;28;20878;-52
2021/05/04 04:17:07;;;;;;;6.55;3.00;;;9.40;99.90;;;;;;4974585;28;20897;-52
2021/05/04 04:19:33;;;;;;;6.00;3.27;;;9.40;99.90;;;;;;4970441;28;20396;-52
2021/05/04 04:21:59;;;;;;;7.10;3.60;;;9.40;99.90;;;;;;4974256;28;20423;-52
2021/05/04 04:24:24;;;;;;;6.90;3.28;;;9.40;99.90;;;;;;4964398;28;20400;-52
2021/05/04 04:26:50;;;;;;;6.10;3.10;;;9.50;99.90;;;;;;4958100;28;20446;-54
2021/05/04 04:29:16;;;;;;;6.70;3.00;;;9.60;99.90;;;;;;4954500;28;20406;-50
2021/05/04 04:31:41;;;;;;;7.20;3.30;;;9.70;99.90;;;;;;4957629;28;20409;-50
2021/05/04 04:34:08;;;;;;;7.90;3.30;;;9.70;99.90;;;;;;4960709;28;20395;-50
2021/05/04 04:36:34;;;;;;;6.38;2.90;;;9.80;99.90;;;;;;4963349;28;20421;-53
2021/05/04 04:39:01;;;;;;;6.53;3.40;;;9.80;99.90;;;;;;4956559;28;20477;-51
2021/05/04 04:41:26;;;;;;;7.55;3.47;;;9.80;99.90;;;;;;4967152;28;20406;-50
2021/05/04 04:43:52;;;;;;;6.30;3.20;;;9.80;99.90;;;;;;4957586;28;20818;-50
2021/05/04 04:46:18;;;;;;;6.32;3.10;;;9.90;99.90;;;;;;4965034;28;20875;-54
2021/05/04 04:48:43;;;;;;;7.83;3.50;;;9.80;99.90;;;;;;4961350;28;20398;-50
2021/05/04 04:51:09;;;;;;;8.35;3.65;;;9.90;99.90;;;;;;4973515;28;20393;-51
2021/05/04 04:53:35;;;;;;;6.43;3.10;;;9.90;99.90;;;;;;4971549;28;20435;-51
2021/05/04 04:56:00;;;;;;;6.60;3.20;;;10.00;99.90;;;;;;4973381;28;20412;-50
2021/05/04 04:58:26;;;;;;;6.23;3.40;;;10.10;99.90;;;;;;4955399;28;20436;-51
2021/05/04 05:00:52;;;;;;;5.30;2.88;;;10.10;99.90;;;;;;4973808;28;20459;-51
2021/05/04 05:03:17;;;;;;;6.33;3.20;;;10.10;99.90;;;;;;4964204;28;20759;-51
2021/05/04 05:05:43;;;;;;;7.10;3.25;;;10.10;99.90;;;;;;4946400;28;20407;-52
2021/05/04 05:08:08;;;;;;;6.00;2.97;;;10.10;99.90;;;;;;4961735;28;20402;-51
2021/05/04 05:10:34;;;;;;;7.40;3.30;;;10.10;99.90;;;;;;4968264;28;20752;-51
2021/05/04 05:13:00;;;;;;;6.37;3.23;;;10.20;99.90;;;;;;4956036;28;20498;-52
2021/05/04 05:15:26;;;;;;;6.20;3.20;;;10.20;99.90;;;;;;4953417;29;20410;-51
2021/05/04 05:17:52;;;;;;;6.70;3.40;;;10.20;99.90;;;;;;4952902;28;20900;-51
2021/05/04 05:20:17;;;;;;;9.20;3.47;;;10.20;99.90;;;;;;4936081;29;20406;-51
2021/05/04 05:22:44;;;;;;;7.03;3.30;;;10.20;99.90;;;;;;4952328;29;20416;-52
2021/05/04 05:25:10;;;;;;;7.18;3.72;;;10.30;99.90;;;;;;4953540;29;20389;-51
2021/05/04 05:27:36;;;;;;;8.13;3.60;;;10.30;99.90;;;;;;4952544;29;20441;-51
2021/05/04 05:30:06;;;;;;;7.90;3.97;;;10.50;99.90;;;;;;4953478;29;20878;-51
2021/05/04 05:32:31;;;;;;;8.10;3.60;;;10.40;99.90;;;;;;4952056;29;20417;-52
2021/05/04 05:34:57;;;;;;;6.65;3.55;;;10.50;99.90;;;;;;4953131;29;20920;-51
2021/05/04 05:37:22;;;;;;;7.40;3.33;;;10.60;99.90;;;;;;4952714;29;20543;-54
2021/05/04 05:39:48;;;;;;;6.10;3.20;;;10.70;99.90;;;;;;4953446;29;20390;-51
2021/05/04 05:42:14;;;;;;;8.50;3.83;;;10.70;99.90;;;;;;4953252;29;20741;-51
2021/05/04 05:44:40;;;;;;;9.77;3.40;;;10.80;99.90;;;;;;4952582;29;20535;-51
2021/05/04 05:47:06;;;;;;;6.57;3.13;;;10.90;99.90;;;;;;4953285;29;20960;-51
2021/05/04 05:49:32;;;;;;;7.57;3.50;;;11.00;99.90;;;;;;4952589;29;20477;-51
2021/05/04 05:51:58;;;;;;;6.72;3.40;;;11.10;99.90;;;;;;4954630;28;20426;-52
2021/05/04 05:54:24;;;;;;;6.47;3.20;;;11.20;99.90;;;;;;4960448;28;20873;-51
2021/05/04 05:56:49;;;;;;;6.82;3.25;;;11.20;99.90;;;;;;4955511;28;20410;-52
2021/05/04 05:59:16;;;;;;;6.17;3.20;;;11.20;99.90;;;;;;4971851;28;20951;-52
2021/05/04 06:01:42;;;;;;;6.10;2.93;;;11.40;99.90;;;;;;4966906;28;20396;-51
2021/05/04 06:04:08;;;;;;;8.82;3.20;;;11.40;99.90;;;;;;4952780;29;20394;-51
2021/05/04 06:06:33;;;;;;;6.80;3.40;;;11.40;99.90;;;;;;4951683;29;20414;-52
2021/05/04 06:08:59;;;;;;;7.10;3.27;;;11.50;99.90;;;;;;4952784;29;20398;-52
2021/05/04 06:11:25;;;;;;;6.10;3.00;;;11.70;99.90;;;;;;4965914;28;20400;-53
2021/05/04 06:13:50;;;;;;;8.90;3.07;;;11.60;99.90;;;;;;4972115;28;20389;-53
2021/05/04 06:16:16;;;;;;;6.55;3.10;;;11.70;99.90;;;;;;4971737;28;20811;-52
2021/05/04 06:18:41;;;;;;;5.80;2.90;;;11.80;99.90;;;;;;4970998;28;20380;-51
2021/05/04 06:21:07;;;;;;;6.75;2.75;;;11.80;99.90;;;;;;4972001;28;20399;-52
2021/05/04 06:23:33;;;;;;;6.23;2.90;;;11.90;99.90;;;;;;4971051;28;20869;-52
2021/05/04 06:26:00;;;;;;;6.60;2.95;;;12.10;99.90;;;;;;4971885;28;20395;-52
2021/05/04 06:28:26;;;;;;;6.40;3.20;;;12.30;99.90;;;;;;4956997;28;20449;-52
2021/05/04 06:30:52;;;;;;;7.32;2.80;;;12.30;99.90;;;;;;4952294;29;20433;-52
2021/05/04 06:33:18;;;;;;;6.20;3.00;;;12.40;99.90;;;;;;4952178;29;20937;-52
2021/05/04 06:35:44;;;;;;;5.63;2.70;;;12.40;99.90;;;;;;4951390;29;20497;-52
2021/05/04 06:38:12;;;;;;;6.90;3.10;;;12.50;99.10;;;;;;4951711;29;20398;-55
2021/05/04 06:40:39;;;;;;;8.20;3.10;;;12.40;99.10;;;;;;4951372;29;20397;-52
2021/05/04 06:43:05;;;;;;;5.50;2.50;;;12.50;99.10;;;;;;4951792;29;20814;-53
2021/05/04 06:45:31;;;;;;;7.95;3.00;;;12.60;99.40;;;;;;4951373;29;20398;-53
2021/05/04 06:47:57;;;;;;;5.53;2.90;;;12.60;99.10;;;;;;4951940;29;20396;-53
2021/05/04 06:50:22;;;;;;;5.53;2.85;;;12.70;98.20;;;;;;4951564;29;20862;-58
2021/05/04 06:52:48;;;;;;;7.07;2.40;;;12.80;98.50;;;;;;4951532;29;20401;-52
2021/05/04 06:55:14;;;;;;;7.53;2.73;;;12.90;98.30;;;;;;4951563;29;20567;-52
2021/05/04 06:57:39;;;;;;;7.40;2.57;;;12.90;97.90;;;;;;4951144;29;20406;-52
2021/05/04 07:00:08;;;;;;;7.07;2.85;;;12.90;97.50;;;;;;4951797;29;20404;-52
2021/05/04 07:02:37;;;;;;;5.90;2.70;;;13.00;97.60;;;;;;4964335;28;20396;-52
2021/05/04 07:05:07;;;;;;;5.65;2.80;;;13.20;97.10;;;;;;4971045;28;20392;-53
2021/05/04 07:07:33;;;;;;;6.32;2.40;;;13.30;97.20;;;;;;4970139;28;20395;-52
2021/05/04 07:10:02;;;;;;;6.30;2.50;;;13.40;97.00;;;;;;4970890;28;20384;-52
2021/05/04 07:12:28;;;;;;;5.43;2.70;;;13.30;95.90;;;;;;4955772;28;20548;-53
2021/05/04 07:14:54;;;;;;;5.40;2.40;;;13.30;96.30;;;;;;4952839;28;20402;-52
2021/05/04 07:17:20;;;;;;;8.60;2.60;;;13.50;96.80;;;;;;4956178;28;20392;-52
2021/05/04 07:19:46;;;;;;;6.00;2.60;;;13.60;96.10;;;;;;4961292;28;20399;-52
2021/05/04 07:22:12;;;;;;;5.72;2.30;;;13.70;95.50;;;;;;4965030;28;20393;-53
2021/05/04 07:24:38;;;;;;;6.25;2.80;;;13.70;95.10;;;;;;4951299;28;20390;-52
2021/05/04 07:27:08;;;;;;;6.82;2.40;;;13.70;95.80;;;;;;4955049;28;20451;-52
2021/05/04 07:29:35;;;;;;;5.43;2.50;;;13.80;95.30;;;;;;4960408;28;20465;-52
2021/05/04 07:32:01;;;;;;;5.40;2.27;;;13.90;95.30;;;;;;4964097;28;20399;-58
2021/05/04 07:34:26;;;;;;;7.25;2.47;;;13.90;94.20;;;;;;4953522;28;20912;-52
2021/05/04 07:36:52;;;;;;;7.90;2.40;;;13.90;95.40;;;;;;4966069;28;20434;-52
2021/05/04 07:39:18;;;;;;;5.15;2.05;;;14.20;94.40;;;;;;4959009;28;20399;-52
2021/05/04 07:41:44;;;;;;;5.57;2.47;;;14.30;93.70;;;;;;4941361;28;21035;-52
2021/05/04 07:44:09;;;;;;;5.65;2.35;;;14.50;93.90;;;;;;4952611;28;20391;-52
2021/05/04 07:46:35;;;;;;;5.23;2.20;;;14.60;93.40;;;;;;4957727;28;20405;-52
2021/05/04 07:49:02;;;;;;;5.40;2.70;;;14.70;93.30;;;;;;4965042;28;20422;-52
2021/05/04 07:51:27;;;;;;;7.70;3.92;;;14.80;91.40;;;;;;4959127;28;20392;-52
2021/05/04 07:53:53;;;;;;;5.27;2.60;;;14.80;90.80;;;;;;4957566;28;20409;-52
2021/05/04 07:56:19;;;;;;;6.77;2.20;;;14.90;91.40;;;;;;4965698;28;20420;-53
2021/05/04 07:58:44;;;;;;;4.90;2.05;;;15.00;91.40;;;;;;4951991;28;20411;-52
2021/05/04 08:01:10;;;;;;;5.67;2.17;;;14.90;91.80;;;;;;4967319;28;20735;-52
2021/05/04 08:03:36;;;;;;;6.15;2.10;;;15.00;90.30;;;;;;4950130;29;20399;-52
2021/05/04 08:06:02;;;;;;;4.37;2.03;;;15.10;88.90;;;;;;4950933;29;20401;-52
2021/05/04 08:08:27;;;;;;;5.30;2.20;;;15.20;89.70;;;;;;4950508;29;20409;-53
2021/05/04 08:10:53;;;;;;;5.83;2.30;;;15.30;89.50;;;;;;4950963;29;20397;-52
2021/05/04 08:13:20;;;;;;;5.60;2.20;;;15.30;88.10;;;;;;4944481;29;20461;-52
2021/05/04 08:15:48;;;;;;;5.05;2.00;;;15.30;88.00;;;;;;4949634;28;20429;-52
2021/05/04 08:18:15;;;;;;;6.25;2.67;;;15.30;87.00;;;;;;4954381;28;20393;-52
2021/05/04 08:20:48;;;;;;;5.90;2.20;;;15.40;85.50;;;;;;4969514;28;20444;-52
2021/05/04 08:23:16;;;;;;;5.33;1.90;;;15.50;85.20;;;;;;4970218;28;20410;-52
2021/05/04 08:25:42;;;;;;;5.32;2.22;;;15.90;85.90;;;;;;4969145;28;20403;-52
2021/05/04 08:28:08;;;;;;;5.68;2.47;;;16.00;80.90;;;;;;4969615;28;20478;-52
2021/05/04 08:30:34;;;;;;;6.33;2.13;;;16.00;84.30;;;;;;4969161;28;20412;-52
2021/05/04 08:32:59;;;;;;;5.38;1.80;;;15.70;80.40;;;;;;4969915;28;20428;-51
2021/05/04 08:35:26;;;;;;;6.00;2.20;;;15.50;80.30;;;;;;4969730;28;20440;-55
2021/05/04 08:37:55;;;;;;;5.80;2.20;;;14.10;81.00;;;;;;4970343;28;20396;-52
2021/05/04 08:40:21;;;;;;;5.30;2.30;;;15.40;82.30;;;;;;4969835;28;20400;-51
2021/05/04 08:42:47;;;;;;;7.30;2.20;;;15.20;82.80;;;;;;4968241;28;20480;-52
2021/05/04 08:45:14;;;;;;;7.40;2.20;;;15.30;81.80;;;;;;4969888;28;20495;-52
2021/05/04 08:47:44;;;;;;;6.77;2.60;;;15.30;81.70;;;;;;4969293;28;20400;-52
2021/05/04 08:50:12;;;;;;;6.38;2.50;;;15.50;83.60;;;;;;4969363;28;20384;-52
2021/05/04 08:52:37;;;;;;;6.40;2.40;;;15.70;80.00;;;;;;4971702;28;20483;-52
2021/05/04 08:55:04;;;;;;;8.43;2.37;;;16.10;80.40;;;;;;4973198;28;20836;-52
2021/05/04 08:57:29;;;;;;;7.78;2.35;;;16.30;79.10;;;;;;4971935;28;21585;-52
2021/05/04 08:59:55;;;;;;;6.00;2.60;;;16.00;81.00;;;;;;4972934;28;20480;-52
2021/05/04 09:02:22;;;;;;;6.20;1.90;;;15.80;79.80;;;;;;4961433;28;20400;-52
2021/05/04 09:04:54;;;;;;;5.93;2.20;;;15.70;78.50;;;;;;4953308;29;20390;-53
2021/05/04 09:07:27;;;;;;;8.40;2.92;;;15.70;80.00;;;;;;4954200;29;20401;-52
2021/05/04 09:13:01;;;;;;;6.22;2.20;;;15.80;79.80;;;;;;4969095;28;20394;-52
2021/05/04 09:21:26;;;;;;;6.65;2.10;;;15.80;80.40;;;;;;4973048;28;20846;-52
2021/05/04 09:23:52;;;;;;;5.03;1.90;;;15.70;79.00;;;;;;4965595;28;20401;-52
2021/05/04 09:26:20;;;;;;;4.90;2.05;;;15.90;77.30;;;;;;4952983;29;20743;-52
2021/05/04 09:28:50;;;;;;;5.97;2.10;;;16.10;75.60;;;;;;4951837;29;20421;-52
2021/05/04 09:31:24;;;;;;;5.60;2.35;;;16.00;73.90;;;;;;4953340;29;20881;-52
2021/05/04 09:33:50;;;;;;;5.20;1.95;;;16.20;72.80;;;;;;4952823;29;20455;-52
2021/05/04 09:36:43;;;;;;;5.97;2.20;;;16.50;72.40;;;;;;4952957;29;20506;-52
2021/05/04 09:39:11;;;;;;;6.63;2.30;;;16.70;73.30;;;;;;4953454;29;20406;-53
2021/05/04 09:41:37;;;;;;;6.40;2.40;;;16.50;72.30;;;;;;4952304;28;20833;-52
2021/05/04 09:44:03;;;;;;;6.60;2.10;;;16.80;75.50;;;;;;4970537;28;20423;-53
2021/05/04 09:46:49;;;;;;;5.20;2.00;;;17.30;75.40;;;;;;4971569;28;20483;-52
2021/05/04 09:49:32;;;;;;;5.10;2.17;;;17.10;72.20;;;;;;4971915;28;20388;-52
2021/05/04 09:54:52;;;;;;;6.40;2.33;;;16.90;67.30;;;;;;4964652;28;20914;-52
2021/05/04 09:57:36;;;;;;;5.60;2.20;;;16.90;68.50;;;;;;4954765;28;20943;-52
2021/05/04 10:00:05;;;;;;;5.97;2.60;;;17.00;69.20;;;;;;4972190;28;20435;-52
2021/05/04 10:02:31;;;;;;;10.73;2.42;;;17.30;67.50;;;;;;4958039;28;20408;-52
2021/05/04 10:05:00;;;;;;;5.70;1.70;;;17.10;66.70;;;;;;4952575;28;20402;-52
2021/05/04 10:07:26;;;;;;;6.70;2.15;;;17.00;63.80;;;;;;4952043;29;20389;-55
2021/05/04 10:09:54;;;;;;;7.28;2.15;;;17.20;66.10;;;;;;4952526;29;20421;-50
2021/05/04 10:12:23;;;;;;;5.50;2.45;;;17.90;68.30;;;;;;4958716;28;20890;-52
2021/05/04 10:14:51;;;;;;;6.07;2.10;;;18.10;67.20;;;;;;4953538;28;20420;-52
2021/05/04 10:17:17;;;;;;;5.00;2.30;;;17.50;65.80;;;;;;4971984;28;20396;-51
2021/05/04 10:19:43;;;;;;;5.43;2.30;;;17.80;67.90;;;;;;4953491;28;20400;-52
2021/05/04 10:22:11;;;;;;;5.60;2.00;;;18.40;68.00;;;;;;4971775;28;20479;-52
2021/05/04 10:24:39;;;;;;;7.50;2.70;;;18.70;65.10;;;;;;4971013;28;20394;-52
2021/05/04 10:27:07;;;;;;;6.40;2.00;;;18.50;64.60;;;;;;4954619;28;20384;-52
2021/05/04 10:29:34;;;;;;;5.40;2.10;;;18.50;63.60;;;;;;4971005;28;20440;-53
2021/05/04 10:32:01;;;;;;;4.95;2.10;;;17.90;62.90;;;;;;4970985;28;20431;-52
2021/05/04 10:34:32;;;;;;;6.13;2.00;;;17.60;62.90;;;;;;4971232;28;20442;-56
2021/05/04 10:37:03;;;;;;;8.00;2.20;;;17.50;62.50;;;;;;4971584;28;20459;-52
2021/05/04 10:39:36;;;;;;;6.10;2.20;;;17.50;61.00;;;;;;4970876;28;20411;-55
2021/05/04 10:42:03;;;;;;;4.95;1.92;;;17.50;60.50;;;;;;4970784;28;20752;-53
2021/05/04 10:44:29;;;;;;;4.45;1.90;;;17.30;60.00;;;;;;4970677;28;20396;-55
2021/05/04 10:46:57;;;;;;;7.37;2.40;;;16.90;59.40;;;;;;4970406;28;20879;-53
2021/05/04 10:49:54;;;;;;;5.22;1.90;;;16.90;61.90;;;;;;4970273;28;20388;-52
2021/05/04 10:52:49;;;;;;;6.10;2.10;;;16.90;60.70;;;;;;4970747;28;20433;-52
2021/05/04 10:55:16;;;;;;;5.47;1.92;;;16.90;62.00;;;;;;4953543;28;20419;-52
2021/05/04 10:58:14;;;;;;;6.78;2.00;;;16.70;60.20;;;;;;4952542;28;20412;-52
2021/05/04 11:00:52;;;;;;;5.25;1.90;;;16.70;60.60;;;;;;4937508;28;20447;-53
2021/05/04 11:03:33;;;;;;;5.90;2.10;;;16.70;61.10;;;;;;4951510;29;20484;-52
2021/05/04 11:06:23;;;;;;;5.55;1.92;;;16.60;60.50;;;;;;4951760;29;20586;-52
2021/05/04 11:08:49;;;;;;;6.40;2.30;;;16.70;61.20;;;;;;4950474;29;20378;-52
2021/05/04 11:11:21;;;;;;;6.27;2.20;;;16.70;61.30;;;;;;4951486;29;20469;-51
2021/05/04 11:14:01;;;;;;;5.55;2.17;;;16.60;61.20;;;;;;4950527;29;20405;-53
2021/05/04 11:16:41;;;;;;;6.00;2.28;;;16.50;62.70;;;;;;4950475;28;20478;-56
2021/05/04 11:19:11;;;;;;;6.10;2.05;;;16.60;65.30;;;;;;4951952;29;20391;-52
2021/05/04 11:21:42;;;;;;;7.40;2.67;;;16.60;63.50;;;;;;4950779;29;20707;-53
2021/05/04 11:24:11;;;;;;;5.25;2.00;;;16.70;65.00;;;;;;4951354;29;21010;-52
2021/05/04 11:26:43;;;;;;;5.00;1.90;;;16.50;61.20;;;;;;4950542;29;20393;-54
2021/05/04 11:29:10;;;;;;;4.60;1.90;;;16.50;62.00;;;;;;4951166;29;20509;-52
2021/05/04 11:31:40;;;;;;;6.85;2.10;;;16.50;61.50;;;;;;4950317;29;20432;-53
2021/05/04 11:34:43;;;;;;;5.47;2.10;;;16.60;63.00;;;;;;4947710;28;20448;-52
2021/05/04 11:37:36;;;;;;;5.55;1.75;;;16.60;63.20;;;;;;4950949;28;20468;-52
2021/05/04 11:40:24;;;;;;;6.47;1.95;;;16.80;62.20;;;;;;4951254;29;20425;-52
2021/05/04 11:42:53;;;;;;;5.88;2.28;;;16.80;62.30;;;;;;4950357;29;20404;-52
2021/05/04 11:45:29;;;;;;;6.90;2.10;;;17.10;63.60;;;;;;4951083;29;20491;-51
2021/05/04 11:48:04;;;;;;;6.05;2.13;;;17.30;64.60;;;;;;4950875;29;20408;-52
2021/05/04 11:50:32;;;;;;;6.43;1.90;;;16.80;61.80;;;;;;4950558;29;20968;-56
2021/05/04 11:53:07;;;;;;;6.85;1.95;;;16.50;63.70;;;;;;4951123;29;20758;-53
2021/05/04 11:55:40;;;;;;;4.88;2.00;;;16.40;67.00;;;;;;4950497;29;20420;-53
2021/05/04 11:58:13;;;;;;;5.30;1.83;;;16.50;65.50;;;;;;4934146;29;20435;-53
2021/05/04 12:00:39;;;;;;;5.50;1.80;;;16.40;65.70;;;;;;4950334;29;20460;-57
2021/05/04 12:03:05;;;;;;;6.80;2.10;;;16.30;66.70;;;;;;4950102;29;20814;-52
2021/05/04 12:05:33;;;;;;;4.40;1.90;;;16.30;67.40;;;;;;4965476;28;20404;-53
2021/05/04 12:07:59;;;;;;;6.10;1.80;;;16.10;68.30;;;;;;4969994;28;20396;-52
2021/05/04 12:10:37;;;;;;;5.20;1.80;;;15.90;69.10;;;;;;4942285;28;20394;-52
2021/05/04 12:13:13;;;;;;;5.30;1.77;;;16.00;70.60;;;;;;4951251;28;20483;-54
2021/05/04 12:15:44;;;;;;;5.55;1.85;;;16.00;71.20;;;;;;4942517;29;20746;-53
2021/05/04 12:18:13;;;;;;;5.20;1.85;;;16.30;73.60;;;;;;4961875;28;20387;-52
2021/05/04 12:20:40;;;;;;;5.22;1.90;;;16.30;73.00;;;;;;4969576;28;20462;-52
2021/05/04 12:23:08;;;;;;;5.80;1.90;;;16.10;73.90;;;;;;4970070;28;20392;-52
2021/05/04 12:25:43;;;;;;;9.55;2.22;;;16.20;75.80;;;;;;4969534;28;20406;-52
2021/05/04 12:28:13;;;;;;;6.70;2.28;;;16.00;75.50;;;;;;4972668;28;21313;-53
2021/05/04 12:30:39;;;;;;;5.40;1.85;;;15.80;79.20;;;;;;4973122;28;20470;-53
2021/05/04 12:33:05;;;;;;;5.20;2.00;;;15.90;79.70;;;;;;4974151;28;20471;-53
2021/05/04 12:35:34;;;;;;;6.00;2.00;;;15.60;79.70;;;;;;4972725;28;20423;-53
2021/05/04 12:40:54;;;;;;;8.00;2.40;;;15.40;85.90;;;;;;4958891;28;20504;-53
2021/05/04 12:43:26;;;;;;;5.75;2.20;;;15.40;88.80;;;;;;4964086;28;20793;-53
2021/05/04 12:46:04;;;;;;;5.07;1.88;;;15.70;90.60;;;;;;4968684;28;20408;-53
2021/05/04 12:48:30;;;;;;;6.07;2.10;;;15.10;90.70;;;;;;4965673;28;20522;-54
2021/05/04 12:51:10;;;;;;;5.70;2.10;;;14.90;92.70;;;;;;4962483;28;20405;-53
2021/05/04 12:53:38;;;;;;;6.50;2.40;;;14.80;93.50;;;;;;4966430;28;20485;-52
2021/05/04 12:56:05;;;;;;;5.60;2.00;;;14.90;93.50;;;;;;4959339;28;20422;-53
2021/05/04 12:58:31;;;;;;;5.85;2.10;;;14.90;94.90;;;;;;4958396;28;20449;-53
2021/05/04 13:01:09;;;;;;;7.18;2.10;;;15.00;96.50;;;;;;4959201;28;20400;-52
2021/05/04 13:03:50;;;;;;;5.97;2.00;;;15.10;95.10;;;;;;4959519;28;20471;-56
2021/05/04 13:06:22;;;;;;;5.47;1.98;;;14.80;95.00;;;;;;4963478;28;20443;-54
2021/05/04 13:08:50;;;;;;;5.90;2.30;;;14.60;94.80;;;;;;4947238;28;20402;-53